createdAt,value
2019-03-09T00:00:51.216Z,1.10
2019-03-09T00:04:36.945Z,0.97
2019-03-09T00:06:29.540Z,1.17
2019-03-09T00:08:22.361Z,1.20
2019-03-09T00:10:15.848Z,1.00
2019-03-09T00:12:08.797Z,1.15
2019-03-09T00:15:54.229Z,0.90
2019-03-09T00:17:46.997Z,1.07
2019-03-09T00:19:40.073Z,1.05
2019-03-09T00:21:33.183Z,1.10
2019-03-09T00:23:30.144Z,0.70
2019-03-09T00:25:24.433Z,0.90
2019-03-09T00:27:19.506Z,1.32
2019-03-09T00:29:26.431Z,1.17
2019-03-09T00:31:26.938Z,1.57
2019-03-09T00:33:19.689Z,1.12
2019-03-09T00:35:13.060Z,1.00
2019-03-09T00:37:05.836Z,1.60
2019-03-09T00:40:52.620Z,1.27
2019-03-09T00:42:45.760Z,1.10
2019-03-09T00:44:38.506Z,1.00
2019-03-09T00:46:32.064Z,0.88
2019-03-09T00:48:24.899Z,1.42
2019-03-09T00:50:17.720Z,1.02
2019-03-09T00:52:10.670Z,1.00
2019-03-09T00:54:03.970Z,0.80
2019-03-09T00:55:56.701Z,1.07
2019-03-09T00:57:49.844Z,1.10
2019-03-09T00:59:42.836Z,1.60
2019-03-09T01:01:36.609Z,1.75
2019-03-09T01:03:29.524Z,1.10
2019-03-09T01:05:22.392Z,1.05
2019-03-09T01:07:16.776Z,1.07
2019-03-09T01:09:09.700Z,1.57
2019-03-09T01:11:02.501Z,1.30
2019-03-09T01:12:55.654Z,1.20
2019-03-09T01:16:40.207Z,1.20
2019-03-09T01:18:32.944Z,0.98
2019-03-09T01:20:26.303Z,1.70
2019-03-09T01:22:19.412Z,1.10
2019-03-09T01:24:12.461Z,0.75
2019-03-09T01:26:05.497Z,0.90
2019-03-09T01:27:58.400Z,1.65
2019-03-09T01:29:51.213Z,1.50
2019-03-09T01:31:44.203Z,1.35
2019-03-09T01:33:37.519Z,1.22
2019-03-09T01:35:30.472Z,1.22
2019-03-09T01:37:23.413Z,1.10
2019-03-09T01:39:16.211Z,1.10
2019-03-09T01:41:08.778Z,1.25
2019-03-09T01:44:54.149Z,1.82
2019-03-09T01:46:46.885Z,1.30
2019-03-09T01:48:39.781Z,1.42
2019-03-09T01:50:32.648Z,1.20
2019-03-09T01:52:25.699Z,1.22
2019-03-09T01:54:18.663Z,1.20
2019-03-09T01:56:11.203Z,1.60
2019-03-09T01:58:03.983Z,1.12
2019-03-09T01:59:58.178Z,0.90
2019-03-09T02:01:51.135Z,1.10
2019-03-09T02:03:43.867Z,1.15
2019-03-09T02:05:36.443Z,1.50
2019-03-09T02:07:29.245Z,1.40
2019-03-09T02:09:22.111Z,1.65
2019-03-09T02:11:14.779Z,1.35
2019-03-09T02:13:07.599Z,1.25
2019-03-09T02:15:00.504Z,1.37
2019-03-09T02:16:54.884Z,1.40
2019-03-09T02:18:47.684Z,1.40
2019-03-09T02:20:40.224Z,1.60
2019-03-09T02:22:33.123Z,1.10
2019-03-09T02:24:26.113Z,1.30
2019-03-09T02:28:11.185Z,1.22
2019-03-09T02:30:17.905Z,1.50
2019-03-09T02:32:10.900Z,0.85
2019-03-09T02:34:04.103Z,0.88
2019-03-09T02:35:56.953Z,1.72
2019-03-09T02:37:49.918Z,1.55
2019-03-09T02:39:44.338Z,1.02
2019-03-09T02:41:37.539Z,1.05
2019-03-09T02:43:30.363Z,1.02
2019-03-09T02:45:25.816Z,1.20
2019-03-09T02:47:18.991Z,1.00
2019-03-09T02:49:11.694Z,1.07
2019-03-09T02:51:04.545Z,1.00
2019-03-09T02:52:57.398Z,1.15
2019-03-09T02:54:49.924Z,1.00
2019-03-09T02:56:45.591Z,2.50
2019-03-09T02:58:38.493Z,1.30
2019-03-09T03:00:32.923Z,0.80
2019-03-09T03:02:27.474Z,1.17
2019-03-09T03:04:20.636Z,1.10
2019-03-09T03:06:13.888Z,0.88
2019-03-09T03:08:06.655Z,0.85
2019-03-09T03:09:59.541Z,0.80
2019-03-09T03:11:52.615Z,0.95
2019-03-09T03:13:46.609Z,0.90
2019-03-09T03:15:39.478Z,1.00
2019-03-09T03:17:32.329Z,0.93
2019-03-09T03:19:25.189Z,1.00
2019-03-09T03:23:10.071Z,1.17
2019-03-09T03:25:02.653Z,1.17
2019-03-09T03:26:55.642Z,1.02
2019-03-09T03:30:40.630Z,1.10
2019-03-09T03:32:34.985Z,1.55
2019-03-09T03:34:28.928Z,1.00
2019-03-09T03:38:14.194Z,0.95
2019-03-09T03:40:09.113Z,1.20
2019-03-09T03:42:02.362Z,1.00
2019-03-09T03:45:47.946Z,2.33
2019-03-09T03:47:40.728Z,1.37
2019-03-09T03:49:34.210Z,1.50
2019-03-09T03:51:27.106Z,1.05
2019-03-09T03:53:20.394Z,1.32
2019-03-09T03:55:12.951Z,2.37
2019-03-09T03:57:07.473Z,1.10
2019-03-09T03:59:00.461Z,1.30
2019-03-09T04:00:53.659Z,1.70
2019-03-09T04:02:46.442Z,1.47
2019-03-09T04:04:39.624Z,1.55
2019-03-09T04:06:32.923Z,1.27
2019-03-09T04:08:25.685Z,1.32
2019-03-09T04:10:18.558Z,1.65
2019-03-09T04:12:11.179Z,1.35
2019-03-09T04:14:06.167Z,1.65
2019-03-09T04:15:58.761Z,1.32
2019-03-09T04:17:53.464Z,1.60
2019-03-09T04:19:46.572Z,1.35
2019-03-09T04:21:39.393Z,1.98
2019-03-09T04:23:33.262Z,1.40
2019-03-09T04:25:26.200Z,1.77
2019-03-09T04:29:11.585Z,1.57
2019-03-09T04:31:04.273Z,1.45
2019-03-09T04:32:57.105Z,1.50
2019-03-09T04:34:50.001Z,1.67
2019-03-09T04:38:37.928Z,1.50
2019-03-09T04:40:30.962Z,1.72
2019-03-09T04:42:23.626Z,1.40
2019-03-09T04:46:08.556Z,1.45
2019-03-09T04:48:01.575Z,1.42
2019-03-09T04:49:54.282Z,1.75
2019-03-09T04:51:47.462Z,2.35
2019-03-09T04:53:40.386Z,1.75
2019-03-09T04:55:33.297Z,1.50
2019-03-09T04:57:26.399Z,1.67
2019-03-09T04:59:19.140Z,1.30
2019-03-09T05:01:12.161Z,1.82
2019-03-09T05:03:04.949Z,1.50
2019-03-09T05:04:58.940Z,1.57
2019-03-09T05:06:51.951Z,1.92
2019-03-09T05:08:48.146Z,2.20
2019-03-09T05:10:44.664Z,1.60
2019-03-09T05:12:37.108Z,1.82
2019-03-09T05:14:30.080Z,1.57
2019-03-09T05:16:22.984Z,1.57
2019-03-09T05:18:18.761Z,1.57
2019-03-09T05:20:11.599Z,1.60
2019-03-09T05:22:04.453Z,2.02
2019-03-09T05:23:57.069Z,1.72
2019-03-09T05:25:51.248Z,2.20
2019-03-09T05:27:45.448Z,2.12
2019-03-09T05:29:38.368Z,2.20
2019-03-09T05:31:31.318Z,2.80
2019-03-09T05:33:24.037Z,2.77
2019-03-09T05:35:16.780Z,2.33
2019-03-09T05:37:09.446Z,2.83
2019-03-09T05:39:02.171Z,2.60
2019-03-09T05:40:56.319Z,2.58
2019-03-09T05:42:49.340Z,2.65
2019-03-09T05:44:42.177Z,3.00
2019-03-09T05:46:36.544Z,4.28
2019-03-09T05:48:30.134Z,3.17
2019-03-09T05:50:22.937Z,3.83
2019-03-09T05:52:22.444Z,3.75
2019-03-09T05:54:14.964Z,3.20
2019-03-09T05:56:08.038Z,3.27
2019-03-09T05:58:00.941Z,2.95
2019-03-09T05:59:53.873Z,2.80
2019-03-09T06:01:46.653Z,4.45
2019-03-09T06:03:39.424Z,2.55
2019-03-09T06:05:37.588Z,2.67
2019-03-09T06:07:30.637Z,2.47
2019-03-09T06:09:23.473Z,1.90
2019-03-09T06:11:16.385Z,2.72
2019-03-09T06:13:09.526Z,2.33
2019-03-09T06:15:02.805Z,3.00
2019-03-09T06:16:57.063Z,1.72
2019-03-09T06:18:49.924Z,2.20
2019-03-09T06:20:42.760Z,3.00
2019-03-09T06:22:35.623Z,2.27
2019-03-09T06:26:20.994Z,1.92
2019-03-09T06:28:13.807Z,2.02
2019-03-09T06:30:09.130Z,1.82
2019-03-09T06:32:33.733Z,1.75
2019-03-09T06:34:26.435Z,1.85
2019-03-09T06:36:22.824Z,1.50
2019-03-09T06:38:30.868Z,1.70
2019-03-09T06:40:24.120Z,1.67
2019-03-09T06:42:41.376Z,1.27
2019-03-09T06:44:34.236Z,2.52
2019-03-09T06:48:19.316Z,1.65
2019-03-09T06:50:14.248Z,1.55
2019-03-09T06:52:06.966Z,1.60
2019-03-09T06:53:59.857Z,1.77
2019-03-09T06:55:52.762Z,1.50
2019-03-09T06:57:45.304Z,1.45
2019-03-09T06:59:37.796Z,1.40
2019-03-09T07:03:22.968Z,1.67
2019-03-09T07:05:15.795Z,1.70
2019-03-09T07:09:00.720Z,1.37
2019-03-09T07:10:54.750Z,1.55
2019-03-09T07:12:47.925Z,1.35
2019-03-09T07:16:46.661Z,1.55
2019-03-09T07:18:41.102Z,1.50
2019-03-09T07:20:34.269Z,1.45
2019-03-09T07:22:27.118Z,1.60
2019-03-09T07:24:19.981Z,2.20
2019-03-09T07:26:13.164Z,2.17
2019-03-09T07:28:09.727Z,2.10
2019-03-09T07:30:02.580Z,1.80
2019-03-09T07:31:57.155Z,2.35
2019-03-09T07:33:51.741Z,2.05
2019-03-09T07:35:44.842Z,2.20
2019-03-09T07:37:37.816Z,1.70
2019-03-09T07:39:30.813Z,2.67
2019-03-09T07:43:15.746Z,2.20
2019-03-09T07:45:13.071Z,2.45
2019-03-09T07:47:05.955Z,1.55
2019-03-09T07:48:58.842Z,2.25
2019-03-09T07:50:51.712Z,1.70
2019-03-09T07:52:44.724Z,2.15
2019-03-09T07:54:37.739Z,2.05
2019-03-09T07:56:31.223Z,1.98
2019-03-09T08:00:21.118Z,2.33
2019-03-09T08:02:13.832Z,2.62
2019-03-09T08:04:06.633Z,2.10
2019-03-09T08:05:59.376Z,1.95
2019-03-09T08:07:52.216Z,2.22
2019-03-09T08:09:45.214Z,1.92
2019-03-09T08:11:38.200Z,1.90
2019-03-09T08:15:23.297Z,2.00
2019-03-09T08:17:16.160Z,1.85
2019-03-09T08:19:09.042Z,2.30
2019-03-09T08:21:01.659Z,1.80
2019-03-09T08:22:55.312Z,1.65
2019-03-09T08:24:47.896Z,2.25
2019-03-09T08:26:41.109Z,2.35
2019-03-09T08:30:27.724Z,2.10
2019-03-09T08:32:20.637Z,1.60
2019-03-09T08:34:13.745Z,2.20
2019-03-09T08:36:06.711Z,1.45
2019-03-09T08:37:59.883Z,1.87
2019-03-09T08:39:53.132Z,1.65
2019-03-09T08:43:39.776Z,1.60
2019-03-09T08:45:33.344Z,2.05
2019-03-09T08:47:27.279Z,1.90
2019-03-09T08:49:20.262Z,1.55
2019-03-09T08:51:13.357Z,1.75
2019-03-09T08:53:06.315Z,1.67
2019-03-09T08:56:52.063Z,1.60
2019-03-09T08:58:45.410Z,1.57
2019-03-09T09:00:38.289Z,1.55
2019-03-09T09:02:31.199Z,1.30
2019-03-09T09:04:24.904Z,1.70
2019-03-09T09:06:19.255Z,1.45
2019-03-09T09:08:11.818Z,1.25
2019-03-09T09:10:07.352Z,1.60
2019-03-09T09:12:00.303Z,1.35
2019-03-09T09:13:54.105Z,1.00
2019-03-09T09:17:39.318Z,1.00
2019-03-09T09:19:32.531Z,1.47
2019-03-09T09:21:25.218Z,1.30
2019-03-09T09:23:17.840Z,0.70
2019-03-09T09:25:11.552Z,1.20
2019-03-09T09:27:05.975Z,1.20
2019-03-09T09:28:59.216Z,1.30
2019-03-09T09:32:44.444Z,1.30
2019-03-09T09:36:29.954Z,1.12
2019-03-09T09:38:22.584Z,1.10
2019-03-09T09:40:23.240Z,1.07
2019-03-09T09:41:59.592Z,0.80
2019-03-09T09:43:34.051Z,1.27
2019-03-09T09:45:13.268Z,0.80
2019-03-09T09:47:06.260Z,1.12
2019-03-09T09:48:59.177Z,0.98
2019-03-09T09:50:33.538Z,1.12
2019-03-09T09:52:07.890Z,1.10
2019-03-09T09:53:42.206Z,0.95
2019-03-09T09:55:18.203Z,1.15
2019-03-09T09:56:52.804Z,1.25
2019-03-09T09:58:27.082Z,0.88
2019-03-09T10:00:01.491Z,0.90
2019-03-09T10:01:36.149Z,0.80
2019-03-09T10:03:10.477Z,1.00
2019-03-09T10:04:44.752Z,0.85
2019-03-09T10:06:19.093Z,0.82
2019-03-09T10:07:53.598Z,0.93
2019-03-09T10:09:27.856Z,0.80
2019-03-09T10:11:02.230Z,0.78
2019-03-09T10:12:36.596Z,1.32
2019-03-09T10:14:10.961Z,1.10
2019-03-09T10:15:45.697Z,0.90
2019-03-09T10:17:20.329Z,1.00
2019-03-09T10:18:54.904Z,1.30
2019-03-09T10:20:30.084Z,1.20
2019-03-09T10:22:04.352Z,1.00
2019-03-09T10:23:38.992Z,1.07
2019-03-09T10:25:13.395Z,0.80
2019-03-09T10:26:47.708Z,0.85
2019-03-09T10:28:22.314Z,0.80
2019-03-09T10:29:56.702Z,0.80
2019-03-09T10:31:31.089Z,0.98
2019-03-09T10:33:05.427Z,0.93
2019-03-09T10:34:39.683Z,0.90
2019-03-09T10:36:13.988Z,0.70
2019-03-09T10:37:49.146Z,0.93
2019-03-09T10:39:24.181Z,0.90
2019-03-09T10:40:58.461Z,0.90
2019-03-09T10:42:32.796Z,1.15
2019-03-09T10:44:07.189Z,0.72
2019-03-09T10:45:41.523Z,0.90
2019-03-09T10:47:15.749Z,0.90
2019-03-09T10:48:50.022Z,1.07
2019-03-09T10:50:25.988Z,1.00
2019-03-09T10:52:00.798Z,0.93
2019-03-09T10:53:35.165Z,1.32
2019-03-09T10:55:18.264Z,1.00
2019-03-09T10:56:52.772Z,1.10
2019-03-09T10:58:28.175Z,1.02
2019-03-09T11:00:02.572Z,0.70
2019-03-09T11:01:38.309Z,0.93
2019-03-09T11:03:13.844Z,0.88
2019-03-09T11:04:48.212Z,1.05
2019-03-09T11:06:22.470Z,0.80
2019-03-09T11:07:56.745Z,1.00
2019-03-09T11:09:31.120Z,0.70
2019-03-09T11:11:05.360Z,0.93
2019-03-09T11:12:39.808Z,0.70
2019-03-09T11:14:14.095Z,0.80
2019-03-09T11:15:48.424Z,0.98
2019-03-09T11:17:41.227Z,0.98
2019-03-09T11:19:34.233Z,0.78
2019-03-09T11:21:27.058Z,1.27
2019-03-09T11:23:20.082Z,0.95
2019-03-09T11:25:12.959Z,0.70
2019-03-09T11:27:06.176Z,0.93
2019-03-09T11:30:32.913Z,1.10
2019-03-09T11:32:07.186Z,1.20
2019-03-09T11:33:41.456Z,1.20
2019-03-09T11:35:15.701Z,0.98
2019-03-09T11:36:49.985Z,1.00
2019-03-09T11:38:24.309Z,1.10
2019-03-09T11:39:58.593Z,1.10
2019-03-09T11:41:32.947Z,1.20
2019-03-09T11:43:07.212Z,1.37
2019-03-09T11:44:42.556Z,0.88
2019-03-09T11:46:16.820Z,1.30
2019-03-09T11:47:51.132Z,1.15
2019-03-09T11:49:25.393Z,1.10
2019-03-09T11:50:59.921Z,1.15
2019-03-09T11:52:34.181Z,0.88
2019-03-09T11:54:08.586Z,1.15
2019-03-09T11:55:43.158Z,1.12
2019-03-09T11:57:17.787Z,1.50
2019-03-09T11:58:52.678Z,1.12
2019-03-09T12:00:47.088Z,0.93
2019-03-09T12:02:39.740Z,1.10
2019-03-09T12:06:25.025Z,1.47
2019-03-09T12:08:17.931Z,0.65
2019-03-09T12:10:11.116Z,0.82
2019-03-09T12:12:05.224Z,0.98
2019-03-09T12:13:58.136Z,1.20
2019-03-09T12:17:43.022Z,0.60
2019-03-09T12:19:35.977Z,1.15
2019-03-09T12:21:28.648Z,1.20
2019-03-09T12:23:22.823Z,1.05
2019-03-09T12:25:16.702Z,1.15
2019-03-09T12:27:09.715Z,1.22
2019-03-09T12:29:02.785Z,1.25
2019-03-09T12:30:55.847Z,0.70
2019-03-09T12:32:48.841Z,0.90
2019-03-09T12:34:41.400Z,1.12
2019-03-09T12:36:34.503Z,0.88
2019-03-09T12:38:27.565Z,1.22
2019-03-09T12:40:20.771Z,0.90
2019-03-09T12:42:13.750Z,0.90
2019-03-09T12:44:06.627Z,1.00
2019-03-09T12:45:59.316Z,0.80
2019-03-09T12:47:52.261Z,1.67
2019-03-09T12:49:46.074Z,1.27
2019-03-09T12:51:38.665Z,0.70
2019-03-09T12:53:31.778Z,1.10
2019-03-09T12:55:24.533Z,0.95
2019-03-09T12:57:17.311Z,0.62
2019-03-09T12:59:10.126Z,0.80
2019-03-09T13:01:02.662Z,1.20
2019-03-09T13:02:37.205Z,1.20
2019-03-09T13:04:11.496Z,0.80
2019-03-09T13:05:46.902Z,0.78
2019-03-09T13:07:22.598Z,0.85
2019-03-09T13:08:56.846Z,1.32
2019-03-09T13:10:31.501Z,1.00
2019-03-09T13:12:06.024Z,0.82
2019-03-09T13:13:40.633Z,0.80
2019-03-09T13:15:15.860Z,0.85
2019-03-09T13:16:50.499Z,0.88
2019-03-09T13:18:25.080Z,1.02
2019-03-09T13:19:59.341Z,0.80
2019-03-09T13:21:33.683Z,0.85
2019-03-09T13:23:08.349Z,0.95
2019-03-09T13:24:43.083Z,1.00
2019-03-09T13:26:17.403Z,1.20
2019-03-09T13:27:51.646Z,0.72
2019-03-09T13:29:26.988Z,1.20
2019-03-09T13:31:01.260Z,0.90
2019-03-09T13:32:35.813Z,1.27
2019-03-09T13:34:10.088Z,1.57
2019-03-09T13:35:44.734Z,0.90
2019-03-09T13:37:19.325Z,0.80
2019-03-09T13:40:46.154Z,0.80
2019-03-09T13:42:20.506Z,0.82
2019-03-09T13:43:54.753Z,1.15
2019-03-09T13:45:29.035Z,1.32
2019-03-09T13:47:04.303Z,0.90
2019-03-09T13:48:38.876Z,0.85
2019-03-09T13:50:14.395Z,0.90
2019-03-09T13:51:48.913Z,2.33
2019-03-09T13:53:23.715Z,1.07
2019-03-09T13:54:58.203Z,0.93
2019-03-09T13:56:32.637Z,0.80
2019-03-09T13:58:07.227Z,1.07
2019-03-09T13:59:41.771Z,0.98
2019-03-09T14:01:16.042Z,1.55
2019-03-09T14:02:50.676Z,0.90
2019-03-09T14:04:24.943Z,0.90
2019-03-09T14:05:59.186Z,1.05
2019-03-09T14:07:33.475Z,1.20
2019-03-09T14:09:07.729Z,1.00
2019-03-09T14:10:43.637Z,0.95
2019-03-09T14:12:18.056Z,0.82
2019-03-09T14:14:12.014Z,1.20
2019-03-09T14:16:05.100Z,1.30
2019-03-09T14:17:58.022Z,0.93
2019-03-09T14:19:51.047Z,1.32
2019-03-09T14:21:44.162Z,0.80
2019-03-09T14:25:29.169Z,0.93
2019-03-09T14:27:22.009Z,0.88
2019-03-09T14:29:14.859Z,0.85
2019-03-09T14:31:08.007Z,0.93
2019-03-09T14:33:00.844Z,1.10
2019-03-09T14:34:53.809Z,1.15
2019-03-09T14:36:46.695Z,0.75
2019-03-09T14:38:39.454Z,0.82
2019-03-09T14:40:33.443Z,1.10
2019-03-09T14:43:59.736Z,1.17
2019-03-09T14:45:52.764Z,1.05
2019-03-09T14:47:45.658Z,1.05
2019-03-09T14:49:38.546Z,1.07
2019-03-09T14:51:31.648Z,1.37
2019-03-09T14:55:16.926Z,0.88
2019-03-09T14:59:02.224Z,1.30
2019-03-09T15:02:47.137Z,0.68
2019-03-09T15:04:39.920Z,1.17
2019-03-09T15:06:32.775Z,1.35
2019-03-09T15:08:27.024Z,0.82
2019-03-09T15:10:19.973Z,1.22
2019-03-09T15:12:13.353Z,1.12
2019-03-09T15:14:06.404Z,1.05
2019-03-09T15:15:59.911Z,1.77
2019-03-09T15:17:53.303Z,1.20
2019-03-09T15:19:46.081Z,1.50
2019-03-09T15:21:38.891Z,1.15
2019-03-09T15:23:31.709Z,1.42
2019-03-09T15:27:18.396Z,1.65
2019-03-09T15:29:12.053Z,1.30
2019-03-09T15:31:05.109Z,1.30
2019-03-09T15:32:58.209Z,1.57
2019-03-09T15:36:43.960Z,1.00
2019-03-09T15:40:29.084Z,0.80
2019-03-09T15:42:22.180Z,0.75
2019-03-09T15:44:15.033Z,0.90
2019-03-09T15:46:08.186Z,0.80
2019-03-09T15:48:01.214Z,0.82
2019-03-09T15:49:54.192Z,1.12
2019-03-09T15:51:47.145Z,1.02
2019-03-09T15:53:40.273Z,1.20
2019-03-09T15:55:33.343Z,1.30
2019-03-09T15:57:26.281Z,1.00
2019-03-09T16:01:11.936Z,1.20
2019-03-09T16:03:04.788Z,0.82
2019-03-09T16:06:49.901Z,1.00
2019-03-09T16:08:42.677Z,1.12
2019-03-09T16:10:35.488Z,1.10
2019-03-09T16:12:29.506Z,1.30
2019-03-09T16:14:22.444Z,1.12
2019-03-09T16:16:15.247Z,0.98
2019-03-09T16:18:08.324Z,1.17
2019-03-09T16:20:01.227Z,1.55
2019-03-09T16:23:46.545Z,1.07
2019-03-09T16:25:39.412Z,1.30
2019-03-09T16:27:32.436Z,1.07
2019-03-09T16:29:25.413Z,1.10
2019-03-09T16:31:18.462Z,1.17
2019-03-09T16:35:04.793Z,1.15
2019-03-09T16:36:57.977Z,1.02
2019-03-09T16:38:51.612Z,1.02
2019-03-09T16:40:44.526Z,0.98
2019-03-09T16:42:37.401Z,1.10
2019-03-09T16:46:23.537Z,1.05
2019-03-09T16:50:11.595Z,1.10
2019-03-09T16:52:04.580Z,0.80
2019-03-09T16:53:57.604Z,1.07
2019-03-09T16:55:50.424Z,0.80
2019-03-09T16:59:35.688Z,0.98
2019-03-09T17:01:29.065Z,1.00
2019-03-09T17:03:22.255Z,0.90
2019-03-09T17:05:15.508Z,0.90
2019-03-09T17:07:08.288Z,1.05
2019-03-09T17:09:01.553Z,0.90
2019-03-09T17:10:55.935Z,0.95
2019-03-09T17:12:48.632Z,1.00
2019-03-09T17:14:42.446Z,0.90
2019-03-09T17:16:35.945Z,0.80
2019-03-09T17:18:29.286Z,1.10
2019-03-09T17:20:22.157Z,0.93
2019-03-09T17:22:17.367Z,1.15
2019-03-09T17:24:10.082Z,1.22
2019-03-09T17:26:02.569Z,1.10
2019-03-09T17:27:56.290Z,1.00
2019-03-09T17:31:41.539Z,1.00
2019-03-09T17:33:34.517Z,0.50
2019-03-09T17:37:21.365Z,0.80
2019-03-09T17:39:14.626Z,0.93
2019-03-09T17:41:07.830Z,0.80
2019-03-09T17:43:00.749Z,0.60
2019-03-09T17:44:53.754Z,0.60
2019-03-09T17:46:46.600Z,0.50
2019-03-09T17:48:39.868Z,0.75
2019-03-09T17:50:32.538Z,0.80
2019-03-09T17:52:25.362Z,0.85
2019-03-09T17:54:18.413Z,0.72
2019-03-09T17:56:11.190Z,0.88
2019-03-09T17:58:04.739Z,0.60
2019-03-09T17:59:57.758Z,0.75
2019-03-09T18:01:50.532Z,0.82
2019-03-09T18:03:43.496Z,0.70
2019-03-09T18:05:37.564Z,0.60
2019-03-09T18:07:30.361Z,0.80
2019-03-09T18:09:22.985Z,0.80
2019-03-09T18:11:16.401Z,0.90
2019-03-09T18:13:09.277Z,0.60
2019-03-09T18:15:02.062Z,1.00
2019-03-09T18:16:55.268Z,0.62
2019-03-09T18:18:48.773Z,0.65
2019-03-09T18:20:41.537Z,0.80
2019-03-09T18:22:34.756Z,0.60
2019-03-09T18:24:27.725Z,0.60
2019-03-09T18:26:20.465Z,0.50
2019-03-09T18:30:09.433Z,1.00
2019-03-09T18:32:02.498Z,0.95
2019-03-09T18:35:49.049Z,0.50
2019-03-09T18:37:41.904Z,0.75
2019-03-09T18:39:34.707Z,0.75
2019-03-09T18:41:28.652Z,1.32
2019-03-09T18:43:21.555Z,0.90
2019-03-09T18:45:17.633Z,0.75
2019-03-09T18:47:10.907Z,0.88
